CFB Gagetown, New Brunswick

Past 24 Hour Conditions

This table is a summary of hourly weather conditions for the past 24 hours. This summary includes the following parameters: temperature, humidity, dew point, wind speed and direction, air pressure, visibility and/or wind chill and humidex.
Date / Time
(ADT)
Conditions Temp (°F) Humidity (%) Dew Point (°F) Wind (mph) Pressure (inches) Vis (mi) Wind Chill
20 April 2014
16:00 Mainly Sunny 52   21 13 WNW 7 30.4 15 *
15:00 Mainly Sunny 50 22 13 WNW 3 30.4 15 *
14:00 Mainly Sunny 47 26 14 WNW 3 30.4 15 *
13:00 Mainly Sunny 45 29 15 WNW 7 30.4 15 *
12:00 Mainly Sunny 45 35 19 WNW 9 30.5 15 *
11:00 Mainly Sunny 42 45 22 WNW 11 30.5 15 *
10:00 Mainly Sunny 40 53 24 WNW 10 30.5 15 *
9:00 Mainly Sunny 37 62 25 WNW 9 30.4 15 *
8:00 Sunny 34 71 26 WNW 10 30.4 15 *
7:00 Sunny 32   79 26 WNW 8 30.4 15 24
6:00 Clear 32   79 26 WNW 9 30.4 15 24
5:00 Clear 33 78 26 WNW 8 30.4 15 *
4:00 Clear 34 78 28 NW 10 30.3 15 *
3:00 Clear 34 77 28 WNW 8 30.3 15 *
2:00 Mainly Clear 34 75 27 NW 8 30.3 15 *
1:00 Mainly Clear 36 74 28 NW 9 30.3 15 *
00:00 Mainly Clear 37 71 28 NW 9 30.2 15 *
19 April 2014
23:00 Mainly Clear 39 65 28 NW 13 30.2 15 *
22:00 Partly Cloudy 40 58 27 WNW 15 30.2 15 *
21:00 Partly Cloudy 41 56 27 WNW 8 30.2 15 *
20:00 Mostly Cloudy 42 58 28 NW 9 30.2 15 *
19:00 Mostly Cloudy 44 56 30 WNW 17 gust 25 30.1 15 *
18:00 Cloudy 45 56 30 WNW 14 gust 22 30.1 15 *
17:00 Cloudy 46 54 30 WNW 13 30.1 15 *
16:00 Mostly Cloudy 48 52 31 WNW 21 gust 28 30.1 15 *
N/A
Not available
 ↑ 
Highest temperature
 ↓ 
Lowest temperature
*
Value not significant.

If you require additional historical weather information, please visit Climate Data Online.